Grantsburg, Illinois
Current Conditions -  °F | °C
As of 7:10 AM on Sunday 21 Dec 2014 (Local Time) from KM30 Reporting Station
Haze Haze  
Wind Chill: 25°   Ceiling: Unl
Heat Index: 25°   Visibility: 4mi
Dew Point: 25°   Wind: 3mph
Humidity: 100%   Direction: 350°N
Pressure: 30.26"   Gusts: NA
Location:  37.39°N, 88.75°W
Report Text: KM30 211310Z AUTO 35003KT 4SM BR CLR M04/M04 A3026 RMK AO2 T10411041
Loading
Personal Weather Stations






























Interactive Weather Map New forecast layout! Learn more

10-Day Weather Forecast

Advertisements
Track Severe Weather on mobile